createdAt,value
2024-05-09T00:01:25.166Z,10.95
2024-05-09T00:03:26.782Z,10.94
2024-05-09T00:05:28.453Z,10.90
2024-05-09T00:07:30.178Z,10.90
2024-05-09T00:09:31.765Z,10.89
2024-05-09T00:11:33.384Z,10.86
2024-05-09T00:13:35.000Z,10.87
2024-05-09T00:15:37.163Z,10.85
2024-05-09T00:17:39.228Z,10.84
2024-05-09T00:19:41.010Z,10.84
2024-05-09T00:21:45.604Z,10.83
2024-05-09T00:23:47.446Z,10.81
2024-05-09T00:25:49.029Z,10.79
2024-05-09T00:27:50.575Z,10.73
2024-05-09T00:29:52.189Z,10.68
2024-05-09T00:31:54.461Z,10.64
2024-05-09T00:33:56.385Z,10.58
2024-05-09T00:35:58.133Z,10.51
2024-05-09T00:38:00.120Z,10.47
2024-05-09T00:40:01.743Z,10.42
2024-05-09T00:42:03.714Z,10.37
2024-05-09T00:44:05.470Z,10.33
2024-05-09T00:46:09.961Z,10.32
2024-05-09T00:48:15.189Z,10.28
2024-05-09T00:50:25.876Z,10.27
2024-05-09T00:52:35.710Z,10.23
2024-05-09T00:54:37.311Z,10.22
2024-05-09T00:56:40.922Z,10.20
2024-05-09T00:58:43.350Z,10.19
2024-05-09T01:00:45.160Z,10.17
2024-05-09T01:02:47.632Z,10.16
2024-05-09T01:04:50.179Z,10.14
2024-05-09T01:06:51.876Z,10.13
2024-05-09T01:08:53.540Z,10.11
2024-05-09T01:10:55.442Z,10.10
2024-05-09T01:12:57.132Z,10.07
2024-05-09T01:14:58.731Z,10.05
2024-05-09T01:17:00.503Z,10.05
2024-05-09T01:19:04.265Z,10.02
2024-05-09T01:21:08.297Z,10.00
2024-05-09T01:23:10.547Z,9.98
2024-05-09T01:25:12.238Z,9.95
2024-05-09T01:27:13.778Z,9.90
2024-05-09T01:29:15.545Z,9.88
2024-05-09T01:31:17.223Z,9.86
2024-05-09T01:33:18.914Z,9.85
2024-05-09T01:35:23.526Z,9.79
2024-05-09T01:37:25.236Z,9.75
2024-05-09T01:39:26.816Z,9.72
2024-05-09T01:41:28.545Z,9.71
2024-05-09T01:43:30.506Z,9.70
2024-05-09T01:45:32.104Z,9.69
2024-05-09T01:47:33.796Z,9.70
2024-05-09T01:49:37.284Z,9.70
2024-05-09T01:51:38.995Z,9.71
2024-05-09T01:53:40.707Z,9.72
2024-05-09T01:55:43.280Z,9.71
2024-05-09T01:57:45.086Z,9.71
2024-05-09T01:59:46.614Z,9.70
2024-05-09T02:01:56.617Z,9.69
2024-05-09T02:03:59.554Z,9.67
2024-05-09T02:06:01.419Z,9.66
2024-05-09T02:08:03.432Z,9.60
2024-05-09T02:10:13.589Z,9.58
2024-05-09T02:12:18.279Z,9.53
2024-05-09T02:14:20.423Z,9.48
2024-05-09T02:16:21.963Z,9.48
2024-05-09T02:18:23.829Z,9.46
2024-05-09T02:20:33.391Z,9.45
2024-05-09T02:22:37.970Z,9.45
2024-05-09T02:24:39.527Z,9.44
2024-05-09T02:26:41.158Z,9.42
2024-05-09T02:28:42.834Z,9.44
2024-05-09T02:30:44.490Z,9.43
2024-05-09T02:32:46.315Z,9.42
2024-05-09T02:34:48.137Z,9.39
2024-05-09T02:36:49.907Z,9.38
2024-05-09T02:38:51.543Z,9.34
2024-05-09T02:40:53.131Z,9.28
2024-05-09T02:42:54.782Z,9.25
2024-05-09T02:44:56.472Z,9.22
2024-05-09T02:46:58.075Z,9.17
2024-05-09T02:48:59.745Z,9.14
2024-05-09T02:51:01.987Z,9.13
2024-05-09T02:53:03.806Z,9.12
2024-05-09T02:55:05.886Z,9.11
2024-05-09T02:57:07.872Z,9.10
2024-05-09T02:59:09.491Z,9.09
2024-05-09T03:01:11.213Z,9.07
2024-05-09T03:03:14.926Z,9.06
2024-05-09T03:05:17.400Z,9.03
2024-05-09T03:07:20.372Z,9.02
2024-05-09T03:09:23.779Z,8.99
2024-05-09T03:11:26.017Z,8.96
2024-05-09T03:13:27.650Z,8.95
2024-05-09T03:15:32.491Z,8.94
2024-05-09T03:17:34.508Z,8.92
2024-05-09T03:19:36.680Z,8.89
2024-05-09T03:21:40.099Z,8.89
2024-05-09T03:23:42.283Z,8.87
2024-05-09T03:25:43.908Z,8.88
2024-05-09T03:27:45.522Z,8.83
2024-05-09T03:29:47.091Z,8.83
2024-05-09T03:31:48.956Z,8.82
2024-05-09T03:33:50.777Z,8.79
2024-05-09T03:35:52.447Z,8.78
2024-05-09T03:37:53.976Z,8.75
2024-05-09T03:39:55.944Z,8.72
2024-05-09T03:41:57.604Z,8.68
2024-05-09T03:43:59.167Z,8.68
2024-05-09T03:46:00.923Z,8.67
2024-05-09T03:48:02.701Z,8.66
2024-05-09T03:50:05.834Z,8.63
2024-05-09T03:52:09.298Z,8.59
2024-05-09T03:54:10.836Z,8.56
2024-05-09T03:56:12.605Z,8.56
2024-05-09T03:58:14.549Z,8.57
2024-05-09T04:00:22.162Z,8.54
2024-05-09T04:02:28.385Z,8.54
2024-05-09T04:04:30.252Z,8.53
2024-05-09T04:06:32.319Z,8.52
2024-05-09T04:08:34.069Z,8.54
2024-05-09T04:10:35.922Z,8.53
2024-05-09T04:12:38.000Z,8.54
2024-05-09T04:14:39.783Z,8.53
2024-05-09T04:16:41.355Z,8.53
2024-05-09T04:18:43.100Z,8.53
2024-05-09T04:20:45.057Z,8.54
2024-05-09T04:22:46.744Z,8.54
2024-05-09T04:24:48.585Z,8.56
2024-05-09T04:26:50.155Z,8.55
2024-05-09T04:28:51.794Z,8.55
2024-05-09T04:30:53.352Z,8.55
2024-05-09T04:32:55.092Z,8.52
2024-05-09T04:34:56.745Z,8.51
2024-05-09T04:36:58.333Z,8.51
2024-05-09T04:38:59.953Z,8.47
2024-05-09T04:41:01.818Z,8.49
2024-05-09T04:43:07.098Z,8.50
2024-05-09T04:45:09.079Z,8.50
2024-05-09T04:47:11.247Z,8.54
2024-05-09T04:49:13.322Z,8.54
2024-05-09T04:51:15.048Z,8.57
2024-05-09T04:53:17.204Z,8.60
2024-05-09T04:55:19.239Z,8.65
2024-05-09T04:57:20.860Z,8.67
2024-05-09T04:59:22.571Z,8.71
2024-05-09T05:01:24.217Z,8.78
2024-05-09T05:03:25.960Z,8.82
2024-05-09T05:05:27.718Z,8.88
2024-05-09T05:07:29.352Z,8.93
2024-05-09T05:09:31.145Z,8.98
2024-05-09T05:11:32.838Z,9.04
2024-05-09T05:13:36.732Z,9.11
2024-05-09T05:15:39.497Z,9.18
2024-05-09T05:17:41.244Z,9.25
2024-05-09T05:19:43.263Z,9.32
2024-05-09T05:21:44.847Z,9.40
2024-05-09T05:23:46.509Z,9.48
2024-05-09T05:25:53.024Z,9.57
2024-05-09T05:27:54.923Z,9.65
2024-05-09T05:29:56.509Z,9.74
2024-05-09T05:31:58.459Z,9.83
2024-05-09T05:34:00.142Z,9.90
2024-05-09T05:36:01.802Z,9.99
2024-05-09T05:38:03.975Z,10.08
2024-05-09T05:40:09.401Z,10.16
2024-05-09T05:42:13.402Z,10.23
2024-05-09T05:44:15.923Z,10.36
2024-05-09T05:46:17.814Z,10.50
2024-05-09T05:48:19.463Z,10.66
2024-05-09T05:50:27.886Z,10.84
2024-05-09T05:52:36.721Z,11.11
2024-05-09T05:54:38.273Z,11.29
2024-05-09T05:56:39.878Z,11.43
2024-05-09T05:58:44.232Z,11.67
2024-05-09T06:00:46.007Z,11.83
2024-05-09T06:02:47.667Z,12.06
2024-05-09T06:04:49.377Z,12.28
2024-05-09T06:06:51.391Z,12.49
2024-05-09T06:08:53.186Z,12.64
2024-05-09T06:10:54.906Z,12.84
2024-05-09T06:12:56.499Z,13.01
2024-05-09T06:14:58.044Z,13.23
2024-05-09T06:16:59.667Z,13.33
2024-05-09T06:19:01.299Z,13.53
2024-05-09T06:21:03.081Z,13.63
2024-05-09T06:23:09.019Z,13.80
2024-05-09T06:25:11.165Z,13.96
2024-05-09T06:27:12.744Z,14.12
2024-05-09T06:29:14.417Z,14.09
2024-05-09T06:31:16.481Z,14.31
2024-05-09T06:33:18.429Z,14.46
2024-05-09T06:35:20.142Z,14.63
2024-05-09T06:37:21.729Z,14.51
2024-05-09T06:39:24.121Z,14.61
2024-05-09T06:41:25.963Z,14.82
2024-05-09T06:43:27.537Z,14.99
2024-05-09T06:45:29.059Z,15.08
2024-05-09T06:47:30.790Z,15.20
2024-05-09T06:49:33.028Z,15.25
2024-05-09T06:51:38.272Z,15.48
2024-05-09T06:53:40.613Z,15.63
2024-05-09T06:55:42.820Z,15.82
2024-05-09T06:57:44.423Z,15.95
2024-05-09T06:59:45.923Z,16.13
2024-05-09T07:01:47.630Z,16.00
2024-05-09T07:03:49.270Z,16.12
2024-05-09T07:05:51.022Z,16.24
2024-05-09T07:07:52.642Z,16.24
2024-05-09T07:09:54.294Z,16.52
2024-05-09T07:11:56.047Z,16.67
2024-05-09T07:13:57.694Z,16.77
2024-05-09T07:15:59.966Z,16.94
2024-05-09T07:18:01.818Z,17.22
2024-05-09T07:20:06.725Z,17.35
2024-05-09T07:22:08.480Z,17.50
2024-05-09T07:24:10.144Z,17.81
2024-05-09T07:26:11.741Z,17.99
2024-05-09T07:28:15.736Z,18.00
2024-05-09T07:30:23.840Z,18.18
2024-05-09T07:32:32.425Z,18.38
2024-05-09T07:34:34.280Z,18.49
2024-05-09T07:36:35.917Z,18.46
2024-05-09T07:38:37.592Z,18.70
2024-05-09T07:40:40.857Z,18.91
2024-05-09T07:42:42.814Z,19.05
2024-05-09T07:44:44.440Z,19.04
2024-05-09T07:47:48.464Z,19.14
2024-05-09T07:53:37.882Z,19.21
2024-05-09T07:55:38.183Z,19.41
2024-05-09T07:57:39.879Z,19.54
2024-05-09T07:59:41.515Z,19.82
2024-05-09T08:01:43.260Z,20.02
2024-05-09T08:03:45.436Z,20.13
2024-05-09T08:05:47.264Z,20.15
2024-05-09T08:07:48.906Z,20.19
2024-05-09T08:09:50.474Z,20.32
2024-05-09T08:11:55.205Z,20.51
2024-05-09T08:13:56.750Z,20.60
2024-05-09T08:15:58.345Z,20.77
2024-05-09T08:18:00.183Z,20.99
2024-05-09T08:20:03.672Z,21.10
2024-05-09T08:22:07.366Z,20.98
2024-05-09T08:24:10.450Z,21.29
2024-05-09T08:26:12.364Z,21.39
2024-05-09T08:28:15.247Z,21.44
2024-05-09T08:30:24.635Z,21.42
2024-05-09T08:32:32.425Z,21.42
2024-05-09T08:34:34.207Z,21.44
2024-05-09T08:36:35.902Z,21.40
2024-05-09T08:38:37.479Z,21.74
2024-05-09T08:40:39.322Z,21.87
2024-05-09T08:42:49.509Z,21.97
2024-05-09T08:44:52.101Z,21.89
2024-05-09T08:46:53.846Z,21.78
2024-05-09T08:48:57.343Z,21.74
2024-05-09T08:50:59.528Z,21.93
2024-05-09T08:53:01.183Z,21.78
2024-05-09T08:55:03.846Z,21.89
2024-05-09T08:57:07.015Z,21.76
2024-05-09T08:59:13.540Z,21.54
2024-05-09T09:01:16.328Z,21.14
2024-05-09T09:03:19.912Z,21.50
2024-05-09T09:05:25.859Z,21.71
2024-05-09T09:07:29.922Z,21.80
2024-05-09T09:09:32.900Z,21.91
2024-05-09T09:11:34.652Z,22.05
2024-05-09T09:13:36.817Z,22.16
2024-05-09T09:15:48.385Z,22.18
2024-05-09T09:18:00.720Z,22.32
2024-05-09T09:20:03.057Z,22.46
2024-05-09T09:22:05.292Z,22.56
2024-05-09T09:24:10.000Z,22.74
2024-05-09T09:28:17.655Z,23.20
2024-05-09T09:30:31.518Z,23.37
2024-05-09T09:32:38.526Z,23.61
2024-05-09T09:34:41.579Z,23.62
2024-05-09T09:36:44.443Z,23.97
2024-05-09T09:38:47.430Z,23.90
2024-05-09T09:40:51.031Z,23.90
2024-05-09T09:42:57.763Z,24.12
2024-05-09T09:45:04.842Z,23.98
2024-05-09T09:47:08.596Z,24.25
2024-05-09T09:49:10.356Z,24.32
2024-05-09T09:51:13.820Z,24.51
2024-05-09T09:53:16.682Z,24.55
2024-05-09T09:55:18.788Z,24.52
2024-05-09T09:57:21.438Z,24.27
2024-05-09T09:59:23.184Z,24.23
2024-05-09T10:01:25.046Z,24.33
2024-05-09T10:03:27.273Z,24.65
2024-05-09T10:05:30.138Z,24.43
2024-05-09T10:07:33.438Z,24.77
2024-05-09T10:09:35.620Z,24.91
2024-05-09T10:11:42.006Z,24.91
2024-05-09T10:13:47.403Z,24.64
2024-05-09T10:15:53.760Z,24.97
2024-05-09T10:18:06.698Z,25.24
2024-05-09T10:20:14.906Z,25.40
2024-05-09T10:22:30.917Z,25.48
2024-05-09T10:24:53.203Z,25.40
2024-05-09T10:26:54.938Z,25.67
2024-05-09T10:28:58.700Z,25.78
2024-05-09T10:31:10.776Z,25.84
2024-05-09T10:33:12.544Z,26.04
2024-05-09T10:35:19.247Z,26.06
2024-05-09T10:37:22.092Z,25.84
2024-05-09T10:39:25.578Z,25.38
2024-05-09T10:41:27.191Z,25.39
2024-05-09T10:43:31.228Z,24.88
2024-05-09T10:45:35.038Z,24.85
2024-05-09T10:47:36.967Z,24.87
2024-05-09T10:49:39.342Z,24.60
2024-05-09T10:51:44.461Z,24.00
2024-05-09T10:53:47.818Z,23.91
2024-05-09T10:55:59.714Z,23.66
2024-05-09T10:58:01.323Z,23.47
2024-05-09T11:00:03.127Z,23.57
2024-05-09T11:02:07.996Z,23.63
2024-05-09T11:04:09.932Z,23.27
2024-05-09T11:06:11.937Z,23.02
2024-05-09T11:08:13.713Z,22.73
2024-05-09T11:10:21.003Z,23.02
2024-05-09T11:12:29.096Z,23.35
2024-05-09T11:14:30.714Z,23.60
2024-05-09T11:16:32.787Z,23.56
2024-05-09T11:18:38.093Z,23.34
2024-05-09T11:20:40.976Z,23.13
2024-05-09T11:22:42.748Z,22.90
2024-05-09T11:24:44.508Z,22.70
2024-05-09T11:26:46.136Z,22.54
2024-05-09T11:28:48.148Z,22.48
2024-05-09T11:30:50.870Z,22.00
2024-05-09T11:32:53.371Z,22.39
2024-05-09T11:34:55.013Z,22.63
2024-05-09T11:36:56.756Z,23.07
2024-05-09T11:38:58.349Z,23.56
2024-05-09T11:40:59.977Z,23.77
2024-05-09T11:43:01.781Z,24.28
2024-05-09T11:45:03.915Z,24.50
2024-05-09T11:47:05.918Z,24.40
2024-05-09T11:49:09.313Z,24.24
2024-05-09T11:51:11.123Z,23.99
2024-05-09T11:53:12.734Z,24.00
2024-05-09T11:55:14.703Z,24.14
2024-05-09T11:57:16.443Z,24.37
2024-05-09T11:59:18.044Z,24.73
2024-05-09T12:01:20.337Z,24.96
2024-05-09T12:03:22.891Z,25.23
2024-05-09T12:05:25.487Z,25.34
2024-05-09T12:07:27.172Z,25.62
2024-05-09T12:09:29.102Z,25.37
2024-05-09T12:11:30.902Z,25.83
2024-05-09T12:13:32.649Z,25.41
2024-05-09T12:15:38.306Z,25.10
2024-05-09T12:17:40.758Z,25.32
2024-05-09T12:19:42.803Z,25.28
2024-05-09T12:21:44.385Z,25.01
2024-05-09T12:23:46.397Z,24.63
2024-05-09T12:25:48.034Z,23.77
2024-05-09T12:27:49.714Z,23.74
2024-05-09T12:29:51.337Z,23.22
2024-05-09T12:31:53.029Z,23.08
2024-05-09T12:33:54.906Z,22.77
2024-05-09T12:35:56.642Z,22.32
2024-05-09T12:37:58.303Z,22.14
2024-05-09T12:39:59.900Z,22.12
2024-05-09T12:42:01.717Z,22.16
2024-05-09T12:44:03.289Z,22.28
2024-05-09T12:46:05.042Z,22.25
2024-05-09T12:48:11.754Z,22.16
2024-05-09T12:50:21.964Z,22.29
2024-05-09T12:52:26.917Z,22.47
2024-05-09T12:54:28.614Z,22.72
2024-05-09T12:56:30.213Z,23.04
2024-05-09T12:58:31.818Z,23.40
2024-05-09T13:00:34.455Z,23.68
2024-05-09T13:02:36.450Z,23.75
2024-05-09T13:04:38.388Z,24.18
2024-05-09T13:06:40.175Z,24.27
2024-05-09T13:08:41.895Z,24.17
2024-05-09T13:10:43.647Z,24.25
2024-05-09T13:12:45.289Z,24.49
2024-05-09T13:14:47.061Z,24.72
2024-05-09T13:16:48.748Z,24.73
2024-05-09T13:18:50.689Z,25.14
2024-05-09T13:20:52.484Z,25.10
2024-05-09T13:22:54.269Z,25.25
2024-05-09T13:24:55.856Z,25.22
2024-05-09T13:26:57.530Z,25.29
2024-05-09T13:28:59.067Z,25.19
2024-05-09T13:31:00.717Z,24.69
2024-05-09T13:33:02.495Z,24.31
2024-05-09T13:35:04.644Z,23.61
2024-05-09T13:37:06.420Z,23.23
2024-05-09T13:39:08.134Z,23.24
2024-05-09T13:41:11.520Z,23.04
2024-05-09T13:43:14.035Z,23.03
2024-05-09T13:45:15.677Z,22.79
2024-05-09T13:47:17.558Z,22.87
2024-05-09T13:49:19.349Z,22.75
2024-05-09T13:51:20.992Z,23.02
2024-05-09T13:53:22.613Z,23.22
2024-05-09T13:55:24.300Z,23.20
2024-05-09T13:57:26.633Z,23.19
2024-05-09T13:59:28.284Z,23.44
2024-05-09T14:01:33.368Z,23.39
2024-05-09T14:03:35.136Z,23.32
2024-05-09T14:05:36.959Z,23.07
2024-05-09T14:07:38.651Z,22.92
2024-05-09T14:09:40.233Z,23.01
2024-05-09T14:11:42.101Z,23.25
2024-05-09T14:13:43.850Z,23.43
2024-05-09T14:15:46.365Z,23.71
2024-05-09T14:17:48.343Z,23.82
2024-05-09T14:19:49.986Z,24.03
2024-05-09T14:21:51.556Z,23.78
2024-05-09T14:23:54.338Z,23.93
2024-05-09T14:25:56.458Z,23.57
2024-05-09T14:27:58.513Z,23.19
2024-05-09T14:30:00.205Z,22.93
2024-05-09T14:32:02.941Z,22.62
2024-05-09T14:34:04.737Z,22.44
2024-05-09T14:36:06.777Z,22.35
2024-05-09T14:38:09.838Z,22.25
2024-05-09T14:40:25.970Z,22.25
2024-05-09T14:42:33.104Z,22.17
2024-05-09T14:44:34.677Z,22.10
2024-05-09T14:46:36.323Z,22.16
2024-05-09T14:48:38.120Z,22.12
2024-05-09T14:50:40.900Z,22.04
2024-05-09T14:52:42.783Z,22.01
2024-05-09T14:54:44.439Z,22.02
2024-05-09T14:56:46.143Z,21.88
2024-05-09T14:58:47.824Z,21.88
2024-05-09T15:00:51.269Z,21.80
2024-05-09T15:02:54.866Z,21.83
2024-05-09T15:04:56.476Z,21.77
2024-05-09T15:06:59.812Z,21.74
2024-05-09T15:09:01.897Z,21.88
2024-05-09T15:11:03.702Z,21.93
2024-05-09T15:13:07.800Z,22.01
2024-05-09T15:15:11.034Z,21.99
2024-05-09T15:17:13.038Z,21.92
2024-05-09T15:19:14.846Z,21.94
2024-05-09T15:21:16.546Z,21.90
2024-05-09T15:23:18.244Z,21.92
2024-05-09T15:25:19.899Z,22.06
2024-05-09T15:27:21.898Z,21.93
2024-05-09T15:29:23.433Z,22.15
2024-05-09T15:31:25.167Z,22.18
2024-05-09T15:33:27.967Z,22.19
2024-05-09T15:35:29.605Z,22.26
2024-05-09T15:37:31.718Z,22.25
2024-05-09T15:39:33.399Z,22.36
2024-05-09T15:41:35.100Z,22.40
2024-05-09T15:43:36.690Z,22.39
2024-05-09T15:45:38.591Z,22.46
2024-05-09T15:47:40.343Z,22.43
2024-05-09T15:49:42.350Z,22.46
2024-05-09T15:51:44.093Z,22.43
2024-05-09T15:53:45.708Z,22.37
2024-05-09T15:55:47.243Z,22.25
2024-05-09T15:57:48.875Z,22.11
2024-05-09T15:59:50.949Z,22.02
2024-05-09T16:01:52.560Z,22.02
2024-05-09T16:03:54.614Z,21.90
2024-05-09T16:05:57.643Z,21.93
2024-05-09T16:07:59.573Z,21.76
2024-05-09T16:10:01.359Z,21.66
2024-05-09T16:12:03.090Z,21.57
2024-05-09T16:14:04.988Z,21.55
2024-05-09T16:16:06.813Z,21.47
2024-05-09T16:18:08.723Z,21.45
2024-05-09T16:20:14.998Z,21.36
2024-05-09T16:22:19.988Z,21.20
2024-05-09T16:24:21.672Z,21.22
2024-05-09T16:26:23.308Z,21.21
2024-05-09T16:28:26.936Z,21.16
2024-05-09T16:30:34.715Z,21.12
2024-05-09T16:32:40.792Z,21.07
2024-05-09T16:34:42.498Z,21.03
2024-05-09T16:36:44.476Z,20.89
2024-05-09T16:38:46.052Z,20.77
2024-05-09T16:40:47.977Z,20.78
2024-05-09T16:42:49.678Z,20.77
2024-05-09T16:44:51.284Z,20.73
2024-05-09T16:46:53.169Z,20.73
2024-05-09T16:48:55.131Z,20.68
2024-05-09T16:50:56.873Z,20.68
2024-05-09T16:52:58.864Z,20.69
2024-05-09T16:55:00.585Z,20.65
2024-05-09T16:57:02.735Z,20.64
2024-05-09T16:59:04.398Z,20.57
2024-05-09T17:01:06.021Z,20.62
2024-05-09T17:03:09.651Z,20.68
2024-05-09T17:05:11.790Z,20.58
2024-05-09T17:07:13.691Z,20.61
2024-05-09T17:09:18.019Z,20.65
2024-05-09T17:11:21.074Z,20.67
2024-05-09T17:13:23.012Z,20.68
2024-05-09T17:15:24.775Z,20.66
2024-05-09T17:17:26.673Z,20.67
2024-05-09T17:19:29.253Z,20.65
2024-05-09T17:21:30.832Z,20.62
2024-05-09T17:23:34.689Z,20.54
2024-05-09T17:25:36.533Z,20.56
2024-05-09T17:27:38.176Z,20.56
2024-05-09T17:29:39.932Z,20.53
2024-05-09T17:31:41.509Z,20.52
2024-05-09T17:33:43.303Z,20.39
2024-05-09T17:35:46.230Z,20.35
2024-05-09T17:37:47.894Z,20.34
2024-05-09T17:39:49.504Z,20.25
2024-05-09T17:41:51.160Z,20.23
2024-05-09T17:43:52.725Z,20.24
2024-05-09T17:45:56.244Z,20.25
2024-05-09T17:47:58.349Z,20.20
2024-05-09T17:50:00.394Z,20.21
2024-05-09T17:52:02.021Z,20.12
2024-05-09T17:54:03.733Z,20.14
2024-05-09T17:56:08.701Z,20.15
2024-05-09T17:58:12.683Z,20.03
2024-05-09T18:00:17.485Z,20.05
2024-05-09T18:02:23.110Z,20.01
2024-05-09T18:04:24.924Z,19.94
2024-05-09T18:06:26.667Z,19.91
2024-05-09T18:08:28.209Z,19.86
2024-05-09T18:10:35.860Z,19.80
2024-05-09T18:12:40.438Z,19.75
2024-05-09T18:14:42.089Z,19.72
2024-05-09T18:16:43.662Z,19.62
2024-05-09T18:18:45.550Z,19.63
2024-05-09T18:20:47.632Z,19.59
2024-05-09T18:22:49.187Z,19.56
2024-05-09T18:24:50.805Z,19.53
2024-05-09T18:26:52.432Z,19.47
2024-05-09T18:28:54.063Z,19.38
2024-05-09T18:30:55.779Z,19.32
2024-05-09T18:32:57.572Z,19.30
2024-05-09T18:34:59.333Z,19.25
2024-05-09T18:37:02.988Z,19.18
2024-05-09T18:39:06.695Z,19.10
2024-05-09T18:41:08.416Z,19.08
2024-05-09T18:43:10.170Z,19.02
2024-05-09T18:45:12.043Z,19.01
2024-05-09T18:47:15.995Z,18.98
2024-05-09T18:49:18.732Z,18.89
2024-05-09T18:51:21.069Z,18.82
2024-05-09T18:53:22.660Z,18.79
2024-05-09T18:55:24.198Z,18.75
2024-05-09T18:57:26.065Z,18.71
2024-05-09T18:59:27.568Z,18.67
2024-05-09T19:01:29.328Z,18.60
2024-05-09T19:03:31.246Z,18.53
2024-05-09T19:05:33.414Z,18.44
2024-05-09T19:07:35.214Z,18.40
2024-05-09T19:09:36.868Z,18.33
2024-05-09T19:11:40.175Z,18.27
2024-05-09T19:13:41.838Z,18.20
2024-05-09T19:15:44.156Z,18.18
2024-05-09T19:17:48.290Z,18.15
2024-05-09T19:19:52.307Z,18.10
2024-05-09T19:21:54.119Z,18.03
2024-05-09T19:23:55.867Z,17.97
2024-05-09T19:25:57.889Z,17.92
2024-05-09T19:27:59.935Z,17.87
2024-05-09T19:30:01.580Z,17.81
2024-05-09T19:32:03.371Z,17.76
2024-05-09T19:34:05.106Z,17.73
2024-05-09T19:36:07.133Z,17.67
2024-05-09T19:38:08.921Z,17.61
2024-05-09T19:40:18.120Z,17.57
2024-05-09T19:42:27.601Z,17.51
2024-05-09T19:44:29.206Z,17.46
2024-05-09T19:46:30.828Z,17.38
2024-05-09T19:48:32.729Z,17.34
2024-05-09T19:50:41.173Z,17.30
2024-05-09T19:52:45.602Z,17.24
2024-05-09T19:54:49.934Z,17.20
2024-05-09T19:56:51.640Z,17.18
2024-05-09T19:58:53.357Z,17.14
2024-05-09T20:00:55.162Z,17.10
2024-05-09T20:02:56.955Z,17.04
2024-05-09T20:04:58.745Z,17.00
2024-05-09T20:07:00.390Z,16.92
2024-05-09T20:09:02.081Z,16.86
2024-05-09T20:11:03.719Z,16.81
2024-05-09T20:13:07.201Z,16.73
2024-05-09T20:15:09.419Z,16.70
2024-05-09T20:17:11.035Z,16.67
2024-05-09T20:19:12.865Z,16.57
2024-05-09T20:21:14.564Z,16.50
2024-05-09T20:23:16.635Z,16.46
2024-05-09T20:25:18.282Z,16.39
2024-05-09T20:27:19.873Z,16.32
2024-05-09T20:29:21.407Z,16.31
2024-05-09T20:31:23.107Z,16.25
2024-05-09T20:33:24.784Z,16.22
2024-05-09T20:35:26.765Z,16.16
2024-05-09T20:37:28.427Z,16.12
2024-05-09T20:39:29.993Z,16.11
2024-05-09T20:41:33.606Z,16.07
2024-05-09T20:43:35.235Z,16.01
2024-05-09T20:45:37.012Z,15.97
2024-05-09T20:47:38.758Z,15.96
2024-05-09T20:49:40.538Z,15.91
2024-05-09T20:51:42.274Z,15.85
2024-05-09T20:53:43.886Z,15.76
2024-05-09T20:55:45.875Z,15.74
2024-05-09T20:57:47.542Z,15.71
2024-05-09T20:59:49.163Z,15.69
2024-05-09T21:01:50.752Z,15.66
2024-05-09T21:03:52.594Z,15.61
2024-05-09T21:05:54.316Z,15.63
2024-05-09T21:07:56.491Z,15.59
2024-05-09T21:09:58.038Z,15.56
2024-05-09T21:11:59.610Z,15.53
2024-05-09T21:14:01.219Z,15.45
2024-05-09T21:16:02.909Z,15.43
2024-05-09T21:18:05.234Z,15.40
2024-05-09T21:20:11.696Z,15.40
2024-05-09T21:22:18.806Z,15.35
2024-05-09T21:24:20.517Z,15.32
2024-05-09T21:26:23.886Z,15.27
2024-05-09T21:28:25.709Z,15.27
2024-05-09T21:30:36.897Z,15.20
2024-05-09T21:32:42.674Z,15.21
2024-05-09T21:34:44.377Z,15.21
2024-05-09T21:36:46.088Z,15.20
2024-05-09T21:38:47.754Z,15.18
2024-05-09T21:40:49.349Z,15.14
2024-05-09T21:42:50.953Z,15.10
2024-05-09T21:44:52.610Z,15.09
2024-05-09T21:46:54.374Z,15.08
2024-05-09T21:48:56.011Z,15.06
2024-05-09T21:50:57.733Z,15.05
2024-05-09T21:52:59.337Z,15.04
2024-05-09T21:55:01.013Z,15.00
2024-05-09T21:57:03.744Z,15.00
2024-05-09T21:59:05.440Z,14.97
2024-05-09T22:01:07.310Z,14.92
2024-05-09T22:03:10.703Z,14.90
2024-05-09T22:05:13.844Z,14.89
2024-05-09T22:07:15.815Z,14.86
2024-05-09T22:09:17.427Z,14.82
2024-05-09T22:11:19.042Z,14.79
2024-05-09T22:13:20.781Z,14.77
2024-05-09T22:15:22.361Z,14.74
2024-05-09T22:17:24.134Z,14.74
2024-05-09T22:19:25.944Z,14.71
2024-05-09T22:21:27.541Z,14.71
2024-05-09T22:23:29.144Z,14.65
2024-05-09T22:25:31.722Z,14.66
2024-05-09T22:27:34.043Z,14.61
2024-05-09T22:29:35.608Z,14.56
2024-05-09T22:31:37.193Z,14.50
2024-05-09T22:33:38.921Z,14.46
2024-05-09T22:35:42.097Z,14.42
2024-05-09T22:37:43.691Z,14.38
2024-05-09T22:39:45.259Z,14.33
2024-05-09T22:41:46.887Z,14.27
2024-05-09T22:43:48.434Z,14.25
2024-05-09T22:45:50.293Z,14.19
2024-05-09T22:47:52.215Z,14.14
2024-05-09T22:49:53.942Z,14.07
2024-05-09T22:51:55.554Z,14.02
2024-05-09T22:53:57.093Z,13.96
2024-05-09T22:55:58.650Z,13.92
2024-05-09T22:58:00.285Z,13.87
2024-05-09T23:00:01.938Z,13.82
2024-05-09T23:02:03.914Z,13.80
2024-05-09T23:04:05.836Z,13.75
2024-05-09T23:06:07.868Z,13.69
2024-05-09T23:08:10.443Z,13.63
2024-05-09T23:10:17.300Z,13.59
2024-05-09T23:12:26.237Z,13.53
2024-05-09T23:14:27.933Z,13.47
2024-05-09T23:16:29.680Z,13.43
2024-05-09T23:18:31.420Z,13.38
2024-05-09T23:20:37.983Z,13.35
2024-05-09T23:22:41.452Z,13.32
2024-05-09T23:24:43.151Z,13.28
2024-05-09T23:26:44.786Z,13.26
2024-05-09T23:28:46.878Z,13.21
2024-05-09T23:30:48.923Z,13.21
2024-05-09T23:32:50.983Z,13.18
2024-05-09T23:34:52.700Z,13.17
2024-05-09T23:36:54.479Z,13.15
2024-05-09T23:38:56.316Z,13.11
2024-05-09T23:40:57.997Z,13.10
2024-05-09T23:42:59.683Z,13.06
2024-05-09T23:45:01.318Z,13.06
2024-05-09T23:47:03.315Z,13.02
2024-05-09T23:49:05.791Z,13.00
2024-05-09T23:51:07.540Z,12.95
2024-05-09T23:53:10.170Z,12.91
2024-05-09T23:55:12.638Z,12.86
2024-05-09T23:57:14.332Z,12.80
2024-05-09T23:59:15.956Z,12.78
